Time;durP1;ratioP1;P1;durP2;ratioP2;P2;SDS_P1;SDS_P2;PMS_P1;PMS_P2;Temp;Humidity;BMP_temperature;BMP_pressure;BME280_temperature;BME280_humidity;BME280_pressure;Samples;Min_cycle;Max_cycle;Signal;HPM_P1;HPM_P2
2023/05/15 00:00:50;;;;;;;57.80;27.15;;;11.30;99.90;;;;;;4863173;29;20046;-91
2023/05/15 00:03:31;;;;;;;54.80;27.23;;;10.80;99.90;;;;;;4863874;29;20049;-92
2023/05/15 00:05:57;;;;;;;62.45;27.00;;;11.70;99.90;;;;;;4862740;29;20533;-91
2023/05/15 00:08:35;;;;;;;56.72;27.23;;;12.00;99.90;;;;;;4877288;29;20144;-91
2023/05/15 00:11:00;;;;;;;60.28;27.83;;;11.80;99.90;;;;;;4878208;29;20109;-93
2023/05/15 00:13:44;;;;;;;55.75;27.77;;;11.80;99.90;;;;;;4877780;29;20053;-91
2023/05/15 00:16:10;;;;;;;61.22;28.52;;;11.30;99.90;;;;;;4863092;29;20049;-92
2023/05/15 00:18:42;;;;;;;63.92;28.83;;;11.20;99.90;;;;;;4878257;29;20370;-92
2023/05/15 00:21:26;;;;;;;60.25;28.65;;;11.30;99.90;;;;;;4863057;29;20049;-91
2023/05/15 00:23:52;;;;;;;61.95;27.90;;;12.10;99.90;;;;;;4877834;29;20462;-92
2023/05/15 00:26:18;;;;;;;65.07;29.20;;;12.20;99.90;;;;;;4863546;29;20046;-91
2023/05/15 00:28:44;;;;;;;71.43;29.38;;;11.70;99.90;;;;;;4865349;29;20105;-92
2023/05/15 00:31:16;;;;;;;67.65;29.35;;;11.10;99.90;;;;;;4881919;29;20041;-93
2023/05/15 00:33:42;;;;;;;63.20;27.60;;;12.20;99.90;;;;;;4893591;29;20049;-91
2023/05/15 00:36:10;;;;;;;62.78;27.38;;;11.00;99.90;;;;;;4863866;29;20466;-92
2023/05/15 00:38:55;;;;;;;64.90;27.05;;;11.50;99.90;;;;;;4862896;29;20049;-92
2023/05/15 00:41:22;;;;;;;68.30;28.67;;;12.00;99.90;;;;;;4881754;29;20120;-92
2023/05/15 00:44:01;;;;;;;62.30;27.23;;;12.10;99.90;;;;;;4880927;29;20108;-91
2023/05/15 00:46:44;;;;;;;63.25;27.67;;;12.00;99.90;;;;;;4880046;29;20057;-92
2023/05/15 00:49:29;;;;;;;89.80;29.92;;;11.00;99.90;;;;;;4879056;29;20135;-91
2023/05/15 00:51:56;;;;;;;69.18;29.15;;;11.80;99.90;;;;;;4896254;29;20045;-91
2023/05/15 00:54:32;;;;;;;62.45;28.23;;;12.00;99.90;;;;;;4880236;29;20064;-91
2023/05/15 00:56:59;;;;;;;68.72;27.60;;;11.80;99.90;;;;;;4895195;29;20508;-92
2023/05/15 00:59:45;;;;;;;60.72;27.92;;;11.40;99.90;;;;;;4921279;23;20081;-91
2023/05/15 01:02:36;;;;;;;64.18;27.30;;;11.50;99.90;;;;;;4881651;23;20055;-92
2023/05/15 01:05:17;;;;;;;67.72;26.58;;;10.80;99.90;;;;;;4897805;29;20112;-92
2023/05/15 01:08:15;;;;;;;63.40;25.35;;;11.00;99.90;;;;;;4898419;29;20401;-91
2023/05/15 01:10:57;;;;;;;62.50;28.50;;;11.00;99.90;;;;;;4898137;29;20053;-92
2023/05/15 01:13:23;;;;;;;65.53;27.50;;;11.70;99.90;;;;;;4899842;29;20126;-91
2023/05/15 01:16:01;;;;;;;60.15;27.25;;;11.40;99.90;;;;;;4900634;29;20380;-92
2023/05/15 01:18:32;;;;;;;71.15;28.75;;;12.00;99.90;;;;;;4898218;29;20041;-92
2023/05/15 01:21:57;;;;;;;74.22;30.77;;;11.60;99.90;;;;;;4899995;29;20111;-91
2023/05/15 01:24:44;;;;;;;64.28;27.85;;;10.90;99.90;;;;;;4900896;29;20558;-92
2023/05/15 01:27:39;;;;;;;63.03;26.88;;;11.00;99.90;;;;;;4898724;29;20061;-92
2023/05/15 01:30:33;;;;;;;67.22;27.42;;;10.90;99.90;;;;;;4898049;29;20063;-92
2023/05/15 01:33:19;;;;;;;65.10;26.70;;;10.90;99.90;;;;;;4897984;29;20048;-91
2023/05/15 01:36:12;;;;;;;70.78;28.45;;;10.70;99.90;;;;;;4898071;29;20044;-92
2023/05/15 01:38:55;;;;;;;73.57;28.60;;;10.80;99.90;;;;;;4873717;23;20053;-91
2023/05/15 01:41:41;;;;;;;59.28;27.38;;;11.80;99.90;;;;;;4862371;29;20398;-91
2023/05/15 01:44:30;;;;;;;64.70;28.08;;;12.00;99.90;;;;;;4860747;29;20046;-92
2023/05/15 01:47:19;;;;;;;68.05;28.52;;;10.80;99.90;;;;;;4861195;29;20508;-92
2023/05/15 01:49:51;;;;;;;64.88;28.73;;;10.80;99.90;;;;;;4876233;29;20123;-92
2023/05/15 01:52:40;;;;;;;73.88;29.23;;;11.20;99.90;;;;;;4875995;29;20066;-92
2023/05/15 01:55:20;;;;;;;79.97;28.65;;;10.70;99.90;;;;;;4871965;29;20085;-92
2023/05/15 01:57:58;;;;;;;64.10;28.63;;;10.70;99.90;;;;;;4894823;29;20088;-91
2023/05/15 02:00:24;;;;;;;71.45;28.70;;;11.60;99.90;;;;;;4879224;29;20048;-92
2023/05/15 02:03:00;;;;;;;67.75;28.52;;;11.50;99.90;;;;;;4859964;29;20128;-92
2023/05/15 02:05:26;;;;;;;71.00;29.52;;;11.60;99.90;;;;;;4860574;29;20064;-91
2023/05/15 02:07:55;;;;;;;82.95;28.38;;;11.50;99.90;;;;;;4858408;29;20060;-92
2023/05/15 02:10:21;;;;;;;63.47;28.25;;;11.70;99.90;;;;;;4870988;29;20083;-92
2023/05/15 02:12:56;;;;;;;74.63;29.80;;;10.50;99.90;;;;;;4880474;29;20084;-92
2023/05/15 02:15:23;;;;;;;57.75;28.88;;;11.60;99.90;;;;;;4878800;29;20504;-92
2023/05/15 02:17:52;;;;;;;68.07;29.95;;;11.40;99.90;;;;;;4880050;29;20451;-91
2023/05/15 02:20:17;;;;;;;92.13;27.30;;;11.30;99.90;;;;;;4878632;29;20049;-92
2023/05/15 02:22:43;;;;;;;64.18;28.23;;;11.20;99.90;;;;;;4895305;29;20073;-92
2023/05/15 02:26:06;;;;;;;69.38;27.88;;;11.30;99.90;;;;;;4878022;29;20045;-92
2023/05/15 02:29:03;;;;;;;71.38;27.50;;;10.40;99.90;;;;;;4890885;29;20048;-92
2023/05/15 02:32:19;;;;;;;64.25;28.00;;;10.40;99.90;;;;;;4858880;29;20146;-92
2023/05/15 02:35:03;;;;;;;69.15;29.45;;;10.40;99.90;;;;;;4835870;29;20061;-92
2023/05/15 02:37:32;;;;;;;62.13;28.08;;;10.40;99.90;;;;;;4858180;29;20107;-91
2023/05/15 02:40:24;;;;;;;69.60;28.35;;;11.20;99.90;;;;;;4866433;29;20405;-91
2023/05/15 02:43:00;;;;;;;64.93;28.35;;;10.40;99.90;;;;;;4879289;29;20081;-92
2023/05/15 02:45:25;;;;;;;77.00;27.42;;;11.10;99.90;;;;;;4883272;29;20385;-92
2023/05/15 02:47:52;;;;;;;69.65;27.80;;;11.30;99.90;;;;;;4882143;29;20041;-93
2023/05/15 02:50:33;;;;;;;64.32;27.60;;;11.20;99.90;;;;;;4862873;29;20046;-91
2023/05/15 02:53:15;;;;;;;87.25;27.45;;;11.00;99.90;;;;;;4879613;29;20042;-92
2023/05/15 02:55:40;;;;;;;75.10;27.60;;;11.40;99.90;;;;;;4859871;29;20089;-92
2023/05/15 02:58:15;;;;;;;62.08;27.27;;;11.20;99.90;;;;;;4860341;29;20096;-91
2023/05/15 03:00:59;;;;;;;66.78;27.10;;;11.40;99.90;;;;;;4874145;29;20049;-92
2023/05/15 03:03:25;;;;;;;63.25;27.50;;;11.50;99.90;;;;;;4860268;29;20074;-92
2023/05/15 03:05:51;;;;;;;58.40;27.05;;;10.30;99.90;;;;;;4865676;29;20053;-91
2023/05/15 03:08:29;;;;;;;63.10;28.85;;;11.50;99.90;;;;;;4878946;29;20088;-91
2023/05/15 03:10:54;;;;;;;63.75;27.88;;;10.30;99.90;;;;;;4866243;29;20074;-92
2023/05/15 03:13:32;;;;;;;73.05;27.02;;;11.40;99.90;;;;;;4860130;29;20053;-92
2023/05/15 03:16:13;;;;;;;62.25;27.38;;;10.20;99.90;;;;;;4908644;23;20052;-91
2023/05/15 03:18:56;;;;;;;56.42;26.33;;;10.30;99.90;;;;;;4896098;29;20059;-92
2023/05/15 03:21:22;;;;;;;106.25;27.23;;;11.00;99.90;;;;;;4897495;29;20037;-91
2023/05/15 03:24:03;;;;;;;78.10;25.40;;;10.60;99.90;;;;;;4897840;29;20061;-92
2023/05/15 03:26:28;;;;;;;69.63;25.98;;;10.20;99.90;;;;;;4896356;29;20040;-90
2023/05/15 03:28:54;;;;;;;86.65;26.73;;;10.60;99.90;;;;;;4897692;29;20047;-90
2023/05/15 03:31:20;;;;;;;61.78;25.88;;;10.10;99.90;;;;;;4896791;29;20404;-91
2023/05/15 03:33:54;;;;;;;104.35;25.50;;;9.30;99.90;;;;;;4896743;29;20052;-91
2023/05/15 03:36:21;;;;;;;62.70;26.13;;;10.40;99.90;;;;;;4897457;29;20052;-91
2023/05/15 03:38:47;;;;;;;66.80;25.95;;;10.40;99.90;;;;;;4896012;29;20056;-91
2023/05/15 03:41:12;;;;;;;63.42;26.10;;;10.10;99.90;;;;;;4896899;29;20040;-91
2023/05/15 03:43:47;;;;;;;102.00;27.25;;;10.40;99.90;;;;;;4898559;29;20140;-91
2023/05/15 03:46:13;;;;;;;69.10;25.90;;;10.60;99.90;;;;;;4895574;29;20051;-91
2023/05/15 03:48:39;;;;;;;67.35;25.98;;;11.20;99.90;;;;;;4896523;29;20044;-91
2023/05/15 03:51:04;;;;;;;77.18;26.95;;;10.90;99.90;;;;;;4896474;29;20053;-91
2023/05/15 03:53:46;;;;;;;62.70;25.85;;;10.30;99.90;;;;;;4894935;29;20044;-90
2023/05/15 03:56:20;;;;;;;86.45;24.95;;;10.10;99.90;;;;;;4899066;29;20048;-91
2023/05/15 03:58:46;;;;;;;76.25;24.48;;;9.70;99.90;;;;;;4904105;29;20056;-91
2023/05/15 04:01:27;;;;;;;57.80;25.27;;;10.10;99.90;;;;;;4915422;29;20053;-91
2023/05/15 04:03:53;;;;;;;52.60;25.20;;;10.20;99.90;;;;;;4899877;29;20389;-90
2023/05/15 04:06:31;;;;;;;57.85;24.63;;;10.30;99.90;;;;;;4898726;29;20048;-90
2023/05/15 04:09:12;;;;;;;58.90;24.65;;;11.20;99.90;;;;;;4898622;29;20045;-91
2023/05/15 04:11:37;;;;;;;88.65;26.73;;;9.60;99.90;;;;;;4898673;29;20064;-92
2023/05/15 04:14:23;;;;;;;70.57;24.60;;;11.20;99.90;;;;;;4912485;29;20116;-91
2023/05/15 04:16:49;;;;;;;65.53;24.85;;;10.10;99.90;;;;;;4913127;29;20053;-91
2023/05/15 04:19:15;;;;;;;79.13;26.55;;;10.10;99.90;;;;;;4899979;29;20044;-92
2023/05/15 04:21:56;;;;;;;126.75;26.88;;;11.20;99.90;;;;;;4903077;29;20052;-92
2023/05/15 04:24:40;;;;;;;77.63;24.45;;;10.50;99.90;;;;;;4902188;29;20049;-92
2023/05/15 04:27:54;;;;;;;71.32;24.77;;;11.00;99.90;;;;;;4900563;29;20040;-91
2023/05/15 04:30:26;;;;;;;53.03;24.55;;;9.90;99.90;;;;;;4892564;29;20471;-92
2023/05/15 04:33:10;;;;;;;62.75;25.77;;;9.90;99.90;;;;;;4900957;29;20040;-91
2023/05/15 04:35:35;;;;;;;;;;;9.90;99.90;;;;;;4899907;29;20079;-91
2023/05/15 04:38:13;;;;;;;68.07;24.90;;;10.30;99.90;;;;;;4898989;29;19982;-91
2023/05/15 04:40:39;;;;;;;53.15;24.55;;;10.40;99.90;;;;;;4886611;29;20055;-92
2023/05/15 04:43:24;;;;;;;51.42;24.55;;;11.00;99.90;;;;;;4898990;29;20041;-91
2023/05/15 04:45:49;;;;;;;90.63;24.92;;;9.90;99.90;;;;;;4900889;29;20109;-92
2023/05/15 04:48:30;;;;;;;56.05;24.83;;;9.90;99.90;;;;;;4898945;29;20378;-91
2023/05/15 04:50:56;;;;;;;66.43;24.58;;;10.50;99.90;;;;;;4900308;29;20050;-91
2023/05/15 04:53:32;;;;;;;68.95;24.65;;;10.80;99.90;;;;;;4899741;29;20378;-91
2023/05/15 04:56:16;;;;;;;59.95;25.83;;;10.80;99.90;;;;;;4882549;29;20049;-92
2023/05/15 04:58:51;;;;;;;53.85;24.90;;;10.50;99.90;;;;;;4900748;29;20095;-92
2023/05/15 05:01:16;;;;;;;60.40;26.10;;;10.60;99.90;;;;;;4900890;29;20065;-91
2023/05/15 05:03:42;;;;;;;52.47;25.90;;;11.20;99.90;;;;;;4901041;29;20048;-91
2023/05/15 05:06:13;;;;;;;57.53;25.35;;;10.90;99.90;;;;;;4898628;29;20044;-92
2023/05/15 05:08:38;;;;;;;61.45;27.02;;;10.10;99.90;;;;;;4898229;29;20036;-91
2023/05/15 05:11:04;;;;;;;56.50;26.38;;;10.90;99.90;;;;;;4898704;29;20366;-91
2023/05/15 05:13:39;;;;;;;55.25;24.73;;;11.20;99.90;;;;;;4899752;29;20048;-91
2023/05/15 05:16:05;;;;;;;57.70;24.75;;;10.80;99.90;;;;;;4896656;29;20064;-91
2023/05/15 05:18:56;;;;;;;63.22;24.83;;;10.10;99.90;;;;;;4922554;23;20104;-91
2023/05/15 05:21:37;;;;;;;58.42;24.88;;;10.00;99.90;;;;;;4897846;29;20084;-91
2023/05/15 05:24:02;;;;;;;56.88;25.58;;;9.70;99.90;;;;;;4897133;29;20505;-91
2023/05/15 05:26:34;;;;;;;55.13;24.70;;;10.00;99.90;;;;;;4904574;29;20059;-91
2023/05/15 05:29:00;;;;;;;64.25;26.48;;;11.00;99.90;;;;;;4899590;29;20053;-92
2023/05/15 05:31:28;;;;;;;53.03;25.48;;;10.00;99.90;;;;;;4897837;29;20489;-89
2023/05/15 05:33:54;;;;;;;59.10;25.30;;;9.90;99.90;;;;;;4899007;29;20044;-83
2023/05/15 05:36:38;;;;;;;50.60;25.45;;;10.20;99.90;;;;;;4898662;29;20081;-80
2023/05/15 05:39:22;;;;;;;49.13;24.45;;;11.10;99.90;;;;;;4897206;29;20040;-84
2023/05/15 05:42:03;;;;;;;;;;;10.60;99.90;;;;;;4892518;29;20045;-85
2023/05/15 05:44:29;;;;;;;43.45;22.60;;;10.40;99.90;;;;;;4900646;29;19927;-83
2023/05/15 05:47:06;;;;;;;48.78;23.55;;;10.30;99.90;;;;;;4898956;29;20108;-86
2023/05/15 05:49:47;;;;;;;44.20;22.58;;;10.60;99.90;;;;;;4897502;29;20052;-84
2023/05/15 05:52:14;;;;;;;43.17;21.15;;;9.80;99.90;;;;;;4897038;29;20075;-84
2023/05/15 05:54:40;;;;;;;42.50;21.27;;;9.90;99.90;;;;;;4897567;29;20527;-84
2023/05/15 05:57:18;;;;;;;39.45;21.15;;;10.60;99.90;;;;;;4898451;29;20095;-85
2023/05/15 05:59:52;;;;;;;44.97;21.73;;;11.10;99.90;;;;;;4898182;29;20048;-85
2023/05/15 06:02:39;;;;;;;41.47;21.45;;;11.10;99.90;;;;;;4896844;29;20044;-85
2023/05/15 06:05:33;;;;;;;40.92;21.83;;;10.50;99.90;;;;;;4891696;29;20051;-84
2023/05/15 06:08:01;;;;;;;43.20;22.00;;;9.50;99.90;;;;;;4887714;29;20600;-85
2023/05/15 06:10:26;;;;;;;39.17;21.02;;;10.80;99.90;;;;;;4890167;29;20040;-84
2023/05/15 06:13:01;;;;;;;36.40;19.77;;;10.80;99.90;;;;;;4895192;29;20510;-85
2023/05/15 06:15:38;;;;;;;37.28;20.23;;;9.80;99.90;;;;;;4883173;29;20121;-84
2023/05/15 06:18:04;;;;;;;38.35;21.42;;;11.10;99.90;;;;;;4893229;29;20051;-84
2023/05/15 06:20:30;;;;;;;38.15;20.42;;;9.90;99.90;;;;;;4881088;29;20450;-83
2023/05/15 06:23:02;;;;;;;43.28;22.75;;;10.80;99.90;;;;;;4878627;29;20122;-84
2023/05/15 06:25:42;;;;;;;41.92;22.70;;;10.40;99.90;;;;;;4877897;29;20048;-85
2023/05/15 06:28:17;;;;;;;44.75;23.52;;;11.30;99.90;;;;;;4878007;29;20049;-84
2023/05/15 06:30:54;;;;;;;42.50;21.83;;;10.70;99.90;;;;;;4879619;29;20478;-87
2023/05/15 06:35:55;;;;;;;41.30;22.52;;;10.00;99.90;;;;;;4972731;23;20122;-85
2023/05/15 06:38:32;;;;;;;46.25;22.88;;;10.90;99.90;;;;;;4870324;29;20052;-82
2023/05/15 06:41:18;;;;;;;44.42;22.45;;;10.60;99.90;;;;;;4858469;29;20037;-84
2023/05/15 06:43:44;;;;;;;44.38;22.88;;;10.60;99.90;;;;;;4878357;29;20481;-83
2023/05/15 06:46:17;;;;;;;47.58;24.50;;;10.10;99.90;;;;;;4878704;29;20132;-83
2023/05/15 06:49:01;;;;;;;40.80;21.65;;;10.80;99.90;;;;;;4878689;29;20041;-83
2023/05/15 06:51:45;;;;;;;42.35;20.92;;;10.20;99.90;;;;;;4877660;29;20100;-83
2023/05/15 06:54:11;;;;;;;;;;;11.30;99.90;;;;;;4879214;29;20081;-83
2023/05/15 06:56:55;;;;;;;37.72;20.80;;;11.20;99.90;;;;;;4878410;29;19967;-83
2023/05/15 06:59:20;;;;;;;37.05;20.83;;;10.80;99.90;;;;;;4877655;29;20037;-83
2023/05/15 07:01:46;;;;;;;34.05;19.90;;;9.60;99.90;;;;;;4879368;29;20051;-83
2023/05/15 07:04:11;;;;;;;36.40;19.90;;;10.50;99.90;;;;;;4876964;29;20045;-83
2023/05/15 07:06:43;;;;;;;34.75;19.63;;;10.30;99.90;;;;;;4877878;29;20080;-83
2023/05/15 07:09:21;;;;;;;35.67;20.00;;;10.30;99.90;;;;;;4867273;29;20049;-82
2023/05/15 07:11:47;;;;;;;36.13;20.23;;;11.70;99.90;;;;;;4867611;29;20029;-88
2023/05/15 07:14:16;;;;;;;35.95;20.08;;;10.60;99.90;;;;;;4865807;29;20056;-83
2023/05/15 07:16:41;;;;;;;36.28;20.67;;;11.90;99.90;;;;;;4859491;29;20060;-84
2023/05/15 07:19:19;;;;;;;34.95;19.83;;;12.20;99.90;;;;;;4856624;29;20045;-84
2023/05/15 07:21:45;;;;;;;32.20;18.33;;;11.20;99.90;;;;;;4856465;29;20064;-85
2023/05/15 07:24:11;;;;;;;31.65;18.17;;;12.20;99.90;;;;;;4843702;29;20453;-85
2023/05/15 07:26:48;;;;;;;32.22;18.45;;;12.40;99.90;;;;;;4840570;29;20401;-85
2023/05/15 07:29:39;;;;;;;29.58;17.98;;;11.90;99.90;;;;;;4853773;29;20050;-85
2023/05/15 07:32:23;;;;;;;30.52;18.52;;;11.60;99.90;;;;;;4847899;29;20042;-85
2023/05/15 07:35:10;;;;;;;29.50;17.70;;;12.20;99.90;;;;;;4845138;29;20137;-83
2023/05/15 07:37:53;;;;;;;27.85;16.30;;;11.70;99.90;;;;;;4848000;29;20053;-84
2023/05/15 07:40:34;;;;;;;29.95;17.77;;;12.70;99.90;;;;;;4850439;29;20084;-84
2023/05/15 07:43:00;;;;;;;30.10;17.50;;;11.90;99.90;;;;;;4859228;29;20084;-83
2023/05/15 07:45:26;;;;;;;29.50;16.85;;;13.10;99.90;;;;;;4857855;29;20045;-83
2023/05/15 07:47:54;;;;;;;27.25;16.20;;;11.70;99.90;;;;;;4861534;29;20557;-83
2023/05/15 07:50:19;;;;;;;28.98;17.00;;;13.30;99.90;;;;;;4863806;29;20046;-84
2023/05/15 07:52:57;;;;;;;30.48;16.67;;;13.50;99.90;;;;;;4863361;29;20394;-82
2023/05/15 07:55:23;;;;;;;26.65;16.42;;;13.60;99.90;;;;;;4868454;29;20044;-83
2023/05/15 07:57:58;;;;;;;29.67;16.60;;;13.50;99.90;;;;;;4873211;29;20049;-83
2023/05/15 08:00:23;;;;;;;24.83;15.90;;;14.00;99.90;;;;;;4871397;29;20045;-83
2023/05/15 08:03:09;;;;;;;27.48;15.68;;;12.90;99.90;;;;;;4870644;29;20057;-83
2023/05/15 08:05:44;;;;;;;24.42;15.35;;;13.80;99.90;;;;;;4870669;29;20052;-83
2023/05/15 08:08:09;;;;;;;24.50;15.48;;;14.20;99.90;;;;;;4868021;29;20145;-84
2023/05/15 08:11:30;;;;;;;25.83;16.27;;;14.20;99.90;;;;;;4872543;29;20041;-83
2023/05/15 08:13:56;;;;;;;24.85;16.08;;;13.30;99.90;;;;;;4855868;29;20087;-83
2023/05/15 08:16:21;;;;;;;25.30;15.25;;;14.80;99.90;;;;;;4864198;29;20114;-85
2023/05/15 08:18:57;;;;;;;24.85;14.88;;;14.40;99.90;;;;;;4863741;29;20526;-88
2023/05/15 08:21:41;;;;;;;22.08;14.70;;;13.90;99.90;;;;;;4862350;29;20423;-84
2023/05/15 08:24:24;;;;;;;23.00;14.25;;;14.20;99.90;;;;;;4861727;29;20053;-84
2023/05/15 08:27:11;;;;;;;22.35;14.13;;;15.20;99.90;;;;;;4861587;29;20045;-86
2023/05/15 08:29:37;;;;;;;21.63;14.13;;;15.30;99.90;;;;;;4865541;29;20136;-85
2023/05/15 08:32:12;;;;;;;20.75;13.88;;;14.60;99.90;;;;;;4861961;29;20080;-84
2023/05/15 08:34:38;;;;;;;23.10;14.85;;;15.50;99.90;;;;;;4860172;29;20053;-85
2023/05/15 08:37:05;;;;;;;22.25;14.77;;;15.00;99.90;;;;;;4861715;29;20057;-84
2023/05/15 08:39:51;;;;;;;21.85;13.68;;;16.20;99.90;;;;;;4861950;29;20046;-85
2023/05/15 08:42:56;;;;;;;19.27;12.75;;;15.80;99.90;;;;;;4862329;29;20069;-84
2023/05/15 08:45:41;;;;;;;18.73;13.30;;;16.20;99.90;;;;;;4848728;29;20061;-85
2023/05/15 08:55:51;;;;;;;19.92;11.32;;;15.90;99.90;;;;;;4861933;29;20069;-86
2023/05/15 08:58:20;;;;;;;17.33;11.10;;;15.90;99.90;;;;;;4860260;29;20455;-86
2023/05/15 09:00:58;;;;;;;18.30;11.02;;;16.00;99.90;;;;;;4862864;29;20034;-85
2023/05/15 09:03:24;;;;;;;16.83;11.00;;;16.20;99.90;;;;;;4861819;29;20049;-86
2023/05/15 09:06:06;;;;;;;19.33;12.60;;;16.60;99.90;;;;;;4918653;23;20012;-85
2023/05/15 09:08:48;;;;;;;17.52;12.10;;;16.50;99.90;;;;;;4879393;29;20128;-86
2023/05/15 09:11:15;;;;;;;17.98;11.90;;;16.70;99.90;;;;;;4880923;29;20049;-85
2023/05/15 09:13:40;;;;;;;17.45;12.52;;;17.70;99.90;;;;;;4880091;29;20053;-86
2023/05/15 09:16:09;;;;;;;18.10;11.60;;;16.80;99.90;;;;;;4880097;29;20150;-87
2023/05/15 09:18:41;;;;;;;17.10;11.35;;;16.80;99.90;;;;;;4880425;29;20056;-88
2023/05/15 09:21:30;;;;;;;16.67;11.18;;;17.80;99.90;;;;;;4880507;29;20501;-84
2023/05/15 09:24:32;;;;;;;17.88;11.20;;;16.90;99.90;;;;;;4880288;29;20390;-88
2023/05/15 09:27:07;;;;;;;16.83;9.88;;;16.80;99.90;;;;;;4881405;29;20152;-86
2023/05/15 09:29:39;;;;;;;15.50;10.38;;;16.80;99.90;;;;;;4879615;29;20041;-86
2023/05/15 09:32:20;;;;;;;14.80;10.57;;;18.10;99.90;;;;;;4879461;29;20144;-86
2023/05/15 09:34:55;;;;;;;16.90;10.77;;;17.90;99.90;;;;;;4881006;29;20053;-87
2023/05/15 09:40:09;;;;;;;17.67;10.30;;;17.80;99.90;;;;;;4908792;23;20053;-87
2023/05/15 09:42:36;;;;;;;16.13;10.13;;;17.90;99.90;;;;;;4897891;29;20083;-87
2023/05/15 09:45:48;;;;;;;15.98;10.80;;;18.10;99.90;;;;;;4897092;29;20044;-87
2023/05/15 09:48:20;;;;;;;15.45;10.55;;;18.10;99.90;;;;;;4880827;29;20056;-87
2023/05/15 09:51:28;;;;;;;15.52;10.48;;;18.10;99.90;;;;;;4896060;29;20500;-86
2023/05/15 09:53:57;;;;;;;16.02;10.82;;;18.20;99.90;;;;;;4870240;29;20041;-86
2023/05/15 09:56:26;;;;;;;15.63;10.60;;;19.10;99.90;;;;;;4873962;29;20048;-86
2023/05/15 09:59:26;;;;;;;15.95;9.90;;;18.50;99.90;;;;;;4877870;29;20056;-86
2023/05/15 10:01:58;;;;;;;14.63;9.68;;;18.40;99.90;;;;;;4894780;29;20037;-89
2023/05/15 10:04:24;;;;;;;17.23;10.77;;;18.20;99.90;;;;;;4881655;29;20057;-88
2023/05/15 10:09:58;;;;;;;15.68;9.88;;;18.50;99.90;;;;;;4980423;23;20049;-94
2023/05/15 10:15:34;;;;;;;14.13;8.80;;;18.50;99.90;;;;;;4200083;27;20069;-88
2023/05/15 10:21:22;;;;;;;13.20;7.82;;;18.70;99.90;;;;;;4820338;29;20046;-87
2023/05/15 10:24:07;;;;;;;12.55;6.82;;;19.00;99.90;;;;;;4815630;29;20050;-88
2023/05/15 10:26:40;;;;;;;12.95;6.80;;;19.00;99.90;;;;;;4812767;29;20117;-88
2023/05/15 10:29:34;;;;;;;9.57;5.00;;;19.20;99.90;;;;;;4827736;29;20049;-88
2023/05/15 10:32:36;;;;;;;10.65;5.72;;;19.30;99.90;;;;;;4808546;29;20054;-87
2023/05/15 10:35:46;;;;;;;12.07;7.57;;;19.40;99.80;;;;;;4804368;29;20054;-88
2023/05/15 10:38:15;;;;;;;13.30;6.38;;;19.70;99.90;;;;;;4782956;29;20054;-83
2023/05/15 10:40:57;;;;;;;14.98;7.10;;;19.70;99.90;;;;;;4767979;30;20059;-84
2023/05/15 10:43:39;;;;;;;11.65;6.85;;;19.90;99.90;;;;;;4767556;30;20055;-87
2023/05/15 10:46:17;;;;;;;13.85;7.30;;;20.00;99.00;;;;;;4753173;30;20516;-90
2023/05/15 10:49:09;;;;;;;;;;;;;;;;;;;;;
2023/05/15 10:52:22;;;;;;;11.55;7.10;;;20.20;99.80;;;;;;4931784;23;20419;-89
2023/05/15 10:58:50;;;;;;;15.05;8.43;;;20.30;99.40;;;;;;4891041;23;20405;-82
2023/05/15 11:08:39;;;;;;;13.35;8.60;;;20.30;99.60;;;;;;5541988;23;20208;-83
2023/05/15 11:11:07;;;;;;;12.40;7.72;;;20.80;99.90;;;;;;4889198;29;20076;-84
2023/05/15 11:14:26;;;;;;;15.18;8.45;;;20.80;99.90;;;;;;4886657;29;20128;-84
2023/05/15 11:16:52;;;;;;;11.45;7.38;;;20.70;98.10;;;;;;4886894;29;20056;-86
2023/05/15 11:20:05;;;;;;;11.48;7.18;;;20.60;98.90;;;;;;4886523;29;20572;-85
2023/05/15 11:23:03;;;;;;;;;;;;;;;;;;;;;
2023/05/15 11:26:41;;;;;;;11.00;6.90;;;21.10;98.40;;;;;;4860580;29;20047;-84
2023/05/15 11:36:32;;;;;;;12.93;5.97;;;20.80;96.50;;;;;;4859389;29;20050;-87
2023/05/15 11:42:27;;;;;;;11.65;5.75;;;20.80;95.10;;;;;;4911393;23;20056;-88
2023/05/15 11:44:55;;;;;;;10.70;6.47;;;20.70;94.60;;;;;;4891679;29;20052;-85
2023/05/15 11:47:47;;;;;;;;;;;;;;;;;;;;;
2023/05/15 11:50:32;;;;;;;12.35;6.45;;;21.20;95.50;;;;;;4878317;29;20497;-84
2023/05/15 12:04:42;;;;;;;11.73;7.68;;;21.50;96.40;;;;;;4886732;29;20501;-86
2023/05/15 12:08:12;;;;;;;13.43;8.02;;;21.40;97.60;;;;;;4876925;23;20057;-86
2023/05/15 12:11:28;;;;;;;11.60;7.97;;;21.10;96.70;;;;;;4859973;29;20122;-86
2023/05/15 12:13:56;;;;;;;13.20;8.05;;;21.20;97.70;;;;;;4858698;29;20068;-87
2023/05/15 12:16:28;;;;;;;15.07;9.10;;;21.80;97.30;;;;;;4859518;29;20405;-86
2023/05/15 12:18:56;;;;;;;13.70;8.88;;;21.70;97.40;;;;;;4859660;29;20049;-85
2023/05/15 12:21:45;;;;;;;13.70;9.18;;;21.20;98.00;;;;;;4858557;29;20466;-85
2023/05/15 12:24:28;;;;;;;12.48;7.90;;;21.00;97.30;;;;;;4860387;29;20046;-86
2023/05/15 12:27:07;;;;;;;13.38;8.35;;;20.80;98.20;;;;;;4858665;29;20088;-85
2023/05/15 12:29:54;;;;;;;12.98;7.85;;;20.60;97.90;;;;;;4858927;29;20490;-86
2023/05/15 12:32:41;;;;;;;13.10;8.60;;;20.80;97.50;;;;;;4860403;29;20490;-86
2023/05/15 12:35:25;;;;;;;14.82;9.52;;;20.70;97.80;;;;;;4861955;29;20430;-86
2023/05/15 12:38:13;;;;;;;14.93;8.80;;;20.30;97.70;;;;;;4861983;29;20109;-86
2023/05/15 12:43:56;;;;;;;12.38;7.47;;;19.90;97.80;;;;;;4863491;29;20052;-85
2023/05/15 12:46:41;;;;;;;11.63;7.63;;;20.00;97.80;;;;;;4862436;29;20049;-85
2023/05/15 12:53:14;;;;;;;12.20;6.70;;;20.80;96.10;;;;;;4863031;29;20044;-86
2023/05/15 12:56:03;;;;;;;11.48;6.80;;;21.60;96.70;;;;;;4860726;29;20049;-86
2023/05/15 12:58:35;;;;;;;12.40;8.02;;;21.80;94.80;;;;;;4861952;29;20494;-86
2023/05/15 13:01:14;;;;;;;13.38;8.50;;;21.90;96.30;;;;;;4861412;29;20054;-86
2023/05/15 13:04:00;;;;;;;12.85;8.52;;;21.90;96.60;;;;;;4864633;29;20049;-84
2023/05/15 13:06:39;;;;;;;12.23;7.43;;;21.70;96.40;;;;;;4870279;29;20068;-85
2023/05/15 13:09:09;;;;;;;11.85;7.22;;;21.20;96.30;;;;;;4862223;29;20108;-86
2023/05/15 13:11:34;;;;;;;12.57;7.22;;;21.20;96.50;;;;;;4862224;29;20049;-86
2023/05/15 13:14:48;;;;;;;12.57;8.05;;;21.40;96.80;;;;;;4862121;29;20049;-85
2023/05/15 13:17:35;;;;;;;11.88;7.50;;;21.80;97.10;;;;;;4845635;29;20093;-86
2023/05/15 13:20:10;;;;;;;13.05;7.70;;;22.30;97.20;;;;;;4861435;29;20049;-86
2023/05/15 13:26:49;;;;;;;12.43;7.90;;;21.20;97.20;;;;;;4860035;29;20041;-85
2023/05/15 13:29:24;;;;;;;11.82;7.45;;;20.90;97.10;;;;;;4832075;29;20074;-86
2023/05/15 13:32:05;;;;;;;12.95;6.95;;;20.90;97.60;;;;;;4872987;23;20408;-88
2023/05/15 13:34:56;;;;;;;13.15;7.57;;;21.20;97.30;;;;;;4898378;29;20088;-89
2023/05/15 13:37:28;;;;;;;11.55;7.20;;;21.50;96.20;;;;;;4921416;23;20063;-87
2023/05/15 13:39:57;;;;;;;12.32;6.53;;;21.30;96.20;;;;;;4897912;29;20100;-86
2023/05/15 13:42:42;;;;;;;11.10;6.85;;;21.60;96.90;;;;;;4903979;23;20179;-87
2023/05/15 13:45:15;;;;;;;12.18;7.47;;;21.60;96.40;;;;;;4877942;29;20144;-85
2023/05/15 13:47:41;;;;;;;11.18;6.65;;;21.30;96.10;;;;;;4879340;29;20053;-84
2023/05/15 13:50:16;;;;;;;10.93;6.47;;;21.20;97.10;;;;;;4878392;29;20393;-84
2023/05/15 13:52:57;;;;;;;11.38;7.00;;;21.00;97.00;;;;;;4879961;29;20053;-87
2023/05/15 13:57:55;;;;;;;14.00;7.25;;;20.70;97.40;;;;;;4953043;23;20057;-85
2023/05/15 14:00:30;;;;;;;14.00;8.52;;;21.60;97.70;;;;;;4898897;29;20060;-86
2023/05/15 14:02:55;;;;;;;12.15;8.10;;;21.00;97.60;;;;;;4894186;29;20057;-85
2023/05/15 14:05:24;;;;;;;15.70;9.32;;;21.20;97.80;;;;;;4903558;29;20056;-86
2023/05/15 14:07:59;;;;;;;13.80;8.55;;;21.30;98.00;;;;;;4909842;29;20123;-85
2023/05/15 14:10:45;;;;;;;14.13;8.20;;;20.80;97.90;;;;;;4896496;29;20090;-85
2023/05/15 14:13:23;;;;;;;14.75;8.00;;;20.80;97.70;;;;;;4896924;29;20144;-85
2023/05/15 14:16:01;;;;;;;13.45;8.50;;;20.70;97.70;;;;;;4895598;29;20139;-85
2023/05/15 14:18:38;;;;;;;13.02;7.97;;;20.70;97.90;;;;;;4896365;29;20104;-85
2023/05/15 14:21:20;;;;;;;12.63;6.90;;;21.00;97.70;;;;;;4896995;29;20054;-85
2023/05/15 14:24:03;;;;;;;10.68;5.90;;;20.90;97.20;;;;;;4898403;29;20357;-85
2023/05/15 14:26:34;;;;;;;10.38;5.38;;;20.90;96.80;;;;;;4895868;29;20056;-85
2023/05/15 14:29:03;;;;;;;10.07;5.60;;;21.00;96.90;;;;;;4896828;29;20056;-84
2023/05/15 14:31:47;;;;;;;12.75;5.60;;;21.20;96.70;;;;;;4896405;29;20053;-85
2023/05/15 14:34:21;;;;;;;9.75;4.95;;;21.00;95.80;;;;;;4897792;29;20045;-87
2023/05/15 14:37:13;;;;;;;11.57;6.43;;;21.20;95.90;;;;;;4897965;29;20087;-86